Terminal Aerodrome Forecast
Issued by NWS

Home | Current Version | Previous Version | Text Only | Print | Product List | Glossary Off
Versions: 1 2 3 4 5 6 7 8 9 10 11 12 13

000
FTUS45 KGGW 222300
TAFGDV
TAF
KGDV 222320Z 2300/2324 12018KT P6SM BKN140
     FM230600 11014KT P6SM VCSH BKN190
     FM231200 VRB04KT P6SM VCSH BKN090
     FM231500 29020KT P6SM VCSH BKN060
      AMD LTD TO CLD VIS AND WIND=

USA.gov is the U.S. government's official web portal to all federal, state and local government web resources and services.